Time;durP1;ratioP1;P1;durP2;ratioP2;P2;SDS_P1;SDS_P2;PMS_P1;PMS_P2;Temp;Humidity;BMP_temperature;BMP_pressure;BME280_temperature;BME280_humidity;BME280_pressure;Samples;Min_cycle;Max_cycle;Signal;HPM_P1;HPM_P2
2021/01/08 00:00:55;;;;;;;;;;;23.30;42.80;;;;;;1569374;75;734;-71
2021/01/08 00:02:57;;;;;;;;;;;23.30;42.80;;;;;;1568999;75;756;-71
2021/01/08 00:04:59;;;;;;;;;;;23.40;42.80;;;;;;1569305;74;722;-69
2021/01/08 00:07:01;;;;;;;;;;;23.30;42.80;;;;;;1573957;74;1945;-71
2021/01/08 00:09:03;;;;;;;;;;;23.30;42.90;;;;;;1570993;74;912;-70
2021/01/08 00:11:06;;;;;;;;;;;23.20;42.80;;;;;;1566875;74;869;-70
2021/01/08 00:13:08;;;;;;;;;;;23.30;42.90;;;;;;1572100;74;725;-70
2021/01/08 00:15:10;;;;;;;;;;;23.20;42.70;;;;;;1569301;75;806;-70
2021/01/08 00:17:12;;;;;;;;;;;23.30;42.80;;;;;;1569290;74;1195;-70
2021/01/08 00:19:13;;;;;;;;;;;23.30;42.80;;;;;;1568653;75;753;-71
2021/01/08 00:21:15;;;;;;;;;;;23.40;42.70;;;;;;1567045;74;784;-70
2021/01/08 00:23:17;;;;;;;;;;;23.40;42.70;;;;;;1567538;75;767;-70
2021/01/08 00:25:19;;;;;;;;;;;23.30;42.70;;;;;;1570094;75;818;-70
2021/01/08 00:27:21;;;;;;;;;;;23.30;42.60;;;;;;1569192;74;1938;-71
2021/01/08 00:29:23;;;;;;;;;;;23.30;42.60;;;;;;1568177;74;784;-70
2021/01/08 00:31:25;;;;;;;;;;;23.20;42.70;;;;;;1569234;75;766;-70
2021/01/08 00:33:27;;;;;;;;;;;23.20;42.70;;;;;;1568841;74;795;-71
2021/01/08 00:35:29;;;;;;;;;;;23.20;42.80;;;;;;1569773;75;766;-69
2021/01/08 00:37:30;;;;;;;;;;;23.20;42.90;;;;;;1568327;74;1132;-69
2021/01/08 00:39:33;;;;;;;;;;;23.20;42.90;;;;;;1567922;75;810;-70
2021/01/08 00:41:34;;;;;;;;;;;23.20;42.80;;;;;;1571118;74;734;-69
2021/01/08 00:43:36;;;;;;;;;;;23.20;42.80;;;;;;1565885;75;730;-69
2021/01/08 00:45:38;;;;;;;;;;;23.20;42.70;;;;;;1568693;75;787;-69
2021/01/08 00:47:40;;;;;;;;;;;23.20;42.70;;;;;;1569081;74;1144;-70
2021/01/08 00:49:42;;;;;;;;;;;23.20;42.60;;;;;;1564188;75;708;-70
2021/01/08 00:51:44;;;;;;;;;;;23.20;42.60;;;;;;1571349;75;743;-69
2021/01/08 00:53:46;;;;;;;;;;;23.30;42.60;;;;;;1568194;75;700;-70
2021/01/08 00:55:47;;;;;;;;;;;23.20;42.50;;;;;;1567784;75;797;-71
2021/01/08 00:57:49;;;;;;;;;;;23.30;42.60;;;;;;1566428;75;1132;-71
2021/01/08 00:59:52;;;;;;;;;;;23.40;42.60;;;;;;1569549;74;857;-70
2021/01/08 01:01:54;;;;;;;;;;;23.20;42.60;;;;;;1569953;75;769;-71
2021/01/08 01:03:56;;;;;;;;;;;23.20;42.50;;;;;;1568888;75;740;-72
2021/01/08 01:05:58;;;;;;;;;;;23.20;42.50;;;;;;1567819;74;1932;-72
2021/01/08 01:07:59;;;;;;;;;;;23.30;42.50;;;;;;1568501;74;1108;-71
2021/01/08 01:10:03;;;;;;;;;;;23.30;42.60;;;;;;1566710;74;800;-70
2021/01/08 01:12:05;;;;;;;;;;;23.20;42.50;;;;;;1569203;75;700;-70
2021/01/08 01:14:07;;;;;;;;;;;23.20;42.50;;;;;;1568325;74;765;-70
2021/01/08 01:16:09;;;;;;;;;;;23.20;42.50;;;;;;1568517;75;677;-70
2021/01/08 01:18:11;;;;;;;;;;;23.20;42.50;;;;;;1566666;76;1189;-68
2021/01/08 01:20:13;;;;;;;;;;;23.20;42.40;;;;;;1568904;74;816;-69
2021/01/08 01:22:15;;;;;;;;;;;23.10;42.60;;;;;;1568644;75;735;-69
2021/01/08 01:24:17;;;;;;;;;;;23.20;42.60;;;;;;1568893;75;763;-70
2021/01/08 01:26:19;;;;;;;;;;;23.20;42.70;;;;;;1568045;75;1938;-71
2021/01/08 01:28:20;;;;;;;;;;;23.20;42.70;;;;;;1568711;74;1145;-71
2021/01/08 01:30:22;;;;;;;;;;;23.20;42.70;;;;;;1566920;75;757;-70
2021/01/08 01:32:24;;;;;;;;;;;23.20;42.70;;;;;;1568151;75;778;-71
2021/01/08 01:34:26;;;;;;;;;;;23.30;42.80;;;;;;1568355;74;746;-70
2021/01/08 01:36:28;;;;;;;;;;;23.20;42.80;;;;;;1567916;75;754;-71
2021/01/08 01:38:30;;;;;;;;;;;23.20;42.70;;;;;;1568524;74;1118;-69
2021/01/08 01:40:32;;;;;;;;;;;23.20;42.70;;;;;;1565657;74;879;-70
2021/01/08 01:42:34;;;;;;;;;;;23.20;42.70;;;;;;1570342;75;878;-70
2021/01/08 01:44:35;;;;;;;;;;;23.30;42.80;;;;;;1564945;75;718;-70
2021/01/08 01:46:37;;;;;;;;;;;23.20;42.60;;;;;;1567671;74;1954;-70
2021/01/08 01:48:39;;;;;;;;;;;23.20;42.60;;;;;;1569189;74;1087;-70
2021/01/08 01:50:41;;;;;;;;;;;23.30;42.60;;;;;;1568185;74;762;-68
2021/01/08 01:52:43;;;;;;;;;;;23.30;42.60;;;;;;1568740;74;778;-70
2021/01/08 01:54:45;;;;;;;;;;;23.20;42.50;;;;;;1568614;75;728;-70
2021/01/08 01:56:47;;;;;;;;;;;23.30;42.60;;;;;;1568704;75;1149;-70
2021/01/08 01:58:49;;;;;;;;;;;23.20;42.40;;;;;;1567713;74;828;-70
2021/01/08 02:00:50;;;;;;;;;;;23.30;42.50;;;;;;1568171;75;702;-69
2021/01/08 02:02:54;;;;;;;;;;;23.30;42.50;;;;;;1567600;74;847;-68
2021/01/08 02:04:56;;;;;;;;;;;23.20;42.40;;;;;;1561753;76;782;-70
2021/01/08 02:06:58;;;;;;;;;;;23.20;42.40;;;;;;1568460;75;1926;-68
2021/01/08 02:09:01;;;;;;;;;;;23.30;42.50;;;;;;1565128;74;746;-70
2021/01/08 02:11:07;;;;;;;;;;;23.30;42.50;;;;;;1568447;75;726;-71
2021/01/08 02:13:09;;;;;;;;;;;23.20;42.40;;;;;;1568065;74;721;-69
2021/01/08 02:15:11;;;;;;;;;;;23.20;42.40;;;;;;1569343;75;686;-71
2021/01/08 02:17:13;;;;;;;;;;;23.20;42.40;;;;;;1566951;74;1216;-71
2021/01/08 02:19:22;;;;;;;;;;;23.20;42.40;;;;;;1565919;74;780;-71
2021/01/08 02:21:34;;;;;;;;;;;23.20;42.40;;;;;;1549106;74;1007;-70
2021/01/08 02:23:40;;;;;;;;;;;23.20;42.30;;;;;;1569276;74;726;-70
2021/01/08 02:25:42;;;;;;;;;;;23.20;42.40;;;;;;1528643;75;1015;-69
2021/01/08 02:27:46;;;;;;;;;;;23.20;42.30;;;;;;1566685;75;1926;-70
2021/01/08 02:29:48;;;;;;;;;;;23.20;42.40;;;;;;1565122;74;1162;-71
2021/01/08 02:31:49;;;;;;;;;;;23.20;42.30;;;;;;1568513;74;734;-70
2021/01/08 02:33:51;;;;;;;;;;;23.20;42.30;;;;;;1568421;75;809;-71
2021/01/08 02:35:53;;;;;;;;;;;23.20;42.20;;;;;;1568857;74;687;-71
2021/01/08 02:37:56;;;;;;;;;;;23.20;42.20;;;;;;1568346;75;1135;-70
2021/01/08 02:39:57;;;;;;;;;;;23.30;42.30;;;;;;1569073;75;716;-71
2021/01/08 02:41:59;;;;;;;;;;;23.20;42.20;;;;;;1568101;74;709;-69
2021/01/08 02:44:02;;;;;;;;;;;23.20;42.20;;;;;;1567281;74;733;-70
2021/01/08 02:46:04;;;;;;;;;;;23.20;42.30;;;;;;1568489;75;721;-70
2021/01/08 02:48:06;;;;;;;;;;;23.20;42.30;;;;;;1569075;74;1900;-71
2021/01/08 02:50:08;;;;;;;;;;;23.40;42.30;;;;;;1566463;75;729;-71
2021/01/08 02:52:10;;;;;;;;;;;23.20;42.20;;;;;;1568891;74;740;-70
2021/01/08 02:54:12;;;;;;;;;;;23.20;42.20;;;;;;1568435;74;698;-70
2021/01/08 02:56:15;;;;;;;;;;;23.20;42.10;;;;;;1542464;76;1152;-70
2021/01/08 02:58:16;;;;;;;;;;;23.20;42.20;;;;;;1565109;75;1113;-70
2021/01/08 03:00:18;;;;;;;;;;;23.20;42.10;;;;;;1569464;74;726;-69
2021/01/08 03:02:20;;;;;;;;;;;23.20;42.10;;;;;;1571400;74;812;-70
2021/01/08 03:04:22;;;;;;;;;;;23.20;42.20;;;;;;1568834;74;727;-71
2021/01/08 03:06:25;;;;;;;;;;;23.10;42.20;;;;;;1566992;75;737;-68
2021/01/08 03:08:27;;;;;;;;;;;23.20;42.10;;;;;;1565567;74;1918;-68
2021/01/08 03:10:29;;;;;;;;;;;23.20;42.20;;;;;;1570449;74;730;-68
2021/01/08 03:12:31;;;;;;;;;;;23.20;42.20;;;;;;1569302;75;732;-68
2021/01/08 03:14:33;;;;;;;;;;;23.20;42.10;;;;;;1565118;74;766;-68
2021/01/08 03:16:35;;;;;;;;;;;23.10;42.10;;;;;;1564344;74;719;-68
2021/01/08 03:18:37;;;;;;;;;;;23.20;42.10;;;;;;1567805;75;1160;-69
2021/01/08 03:20:39;;;;;;;;;;;23.20;42.20;;;;;;1568224;75;726;-68
2021/01/08 03:22:40;;;;;;;;;;;23.20;42.20;;;;;;1567872;75;795;-68
2021/01/08 03:24:42;;;;;;;;;;;23.20;42.30;;;;;;1566611;75;664;-67
2021/01/08 03:26:44;;;;;;;;;;;23.20;42.10;;;;;;1566278;74;1936;-68
2021/01/08 03:28:46;;;;;;;;;;;23.20;42.10;;;;;;1568397;75;747;-67
2021/01/08 03:30:48;;;;;;;;;;;23.20;42.20;;;;;;1570391;74;777;-67
2021/01/08 03:32:50;;;;;;;;;;;23.10;42.20;;;;;;1569103;75;753;-67
2021/01/08 03:34:52;;;;;;;;;;;23.20;42.20;;;;;;1568307;74;739;-67
2021/01/08 03:36:53;;;;;;;;;;;23.20;42.10;;;;;;1568668;74;1143;-70
2021/01/08 03:38:55;;;;;;;;;;;23.20;42.10;;;;;;1589233;73;3080;-69
2021/01/08 03:40:57;;;;;;;;;;;23.20;42.10;;;;;;1593138;73;691;-70
2021/01/08 03:42:59;;;;;;;;;;;23.20;42.10;;;;;;1596216;73;720;-70
2021/01/08 03:45:01;;;;;;;;;;;23.20;42.10;;;;;;1596416;73;706;-71
2021/01/08 03:47:03;;;;;;;;;;;23.20;42.10;;;;;;1586447;73;1937;-70
2021/01/08 03:49:05;;;;;;;;;;;23.20;42.10;;;;;;1566172;73;1172;-69
2021/01/08 03:51:07;;;;;;;;;;;23.20;42.10;;;;;;1553957;76;720;-70
2021/01/08 03:53:09;;;;;;;;;;;23.10;42.10;;;;;;1561121;76;700;-73
2021/01/08 03:55:11;;;;;;;;;;;23.10;42.10;;;;;;1563530;76;711;-71
2021/01/08 03:57:13;;;;;;;;;;;23.10;42.20;;;;;;1561412;76;725;-69
2021/01/08 03:59:15;;;;;;;;;;;23.00;42.10;;;;;;1561969;76;1016;-71
2021/01/08 04:01:17;;;;;;;;;;;23.00;42.20;;;;;;1559151;76;762;-74
2021/01/08 04:03:19;;;;;;;;;;;23.00;42.40;;;;;;1562921;76;696;-70
2021/01/08 04:05:20;;;;;;;;;;;23.00;42.70;;;;;;1563610;75;603;-71
2021/01/08 04:07:22;;;;;;;;;;;23.00;42.50;;;;;;1557761;76;1939;-72
2021/01/08 04:09:24;;;;;;;;;;;23.00;42.50;;;;;;1558701;75;740;-71
2021/01/08 04:11:26;;;;;;;;;;;23.10;42.60;;;;;;1561459;76;612;-73
2021/01/08 04:13:47;;;;;;;;;;;23.10;42.40;;;;;;1556398;76;736;-72
2021/01/08 04:15:49;;;;;;;;;;;23.10;42.50;;;;;;1600893;73;1208;-57
2021/01/08 04:17:51;;;;;;;;;;;23.10;42.40;;;;;;1596341;73;651;-56
2021/01/08 04:19:53;;;;;;;;;;;23.10;42.30;;;;;;1597139;72;819;-56
2021/01/08 04:21:55;;;;;;;;;;;23.00;42.30;;;;;;1608524;73;685;-57
2021/01/08 04:23:57;;;;;;;;;;;23.10;42.40;;;;;;1610978;72;756;-57
2021/01/08 04:25:58;;;;;;;;;;;23.00;42.40;;;;;;1602441;73;1183;-57
2021/01/08 04:28:00;;;;;;;;;;;23.00;42.60;;;;;;1609562;73;1930;-56
2021/01/08 04:30:03;;;;;;;;;;;23.00;42.60;;;;;;1599808;73;729;-57
2021/01/08 04:32:06;;;;;;;;;;;23.00;42.60;;;;;;1611680;72;707;-57
2021/01/08 04:34:08;;;;;;;;;;;23.00;42.60;;;;;;1617444;73;656;-57
2021/01/08 04:36:10;;;;;;;;;;;23.00;42.60;;;;;;1616899;73;1155;-57
2021/01/08 04:38:12;;;;;;;;;;;23.00;42.60;;;;;;1604625;72;718;-57
2021/01/08 04:40:14;;;;;;;;;;;23.00;42.60;;;;;;1616635;73;737;-57
2021/01/08 04:42:16;;;;;;;;;;;23.00;42.60;;;;;;1617350;73;796;-58
2021/01/08 04:44:17;;;;;;;;;;;23.00;42.40;;;;;;1614476;73;767;-56
2021/01/08 04:46:20;;;;;;;;;;;23.00;42.50;;;;;;1615403;73;1224;-59
2021/01/08 04:48:22;;;;;;;;;;;23.00;42.60;;;;;;1618181;73;1924;-57
2021/01/08 04:50:24;;;;;;;;;;;23.00;42.60;;;;;;1615171;73;791;-57
2021/01/08 04:52:26;;;;;;;;;;;23.10;42.60;;;;;;1617912;72;714;-58
2021/01/08 04:54:28;;;;;;;;;;;23.00;42.50;;;;;;1613760;73;696;-56
2021/01/08 04:56:30;;;;;;;;;;;23.10;42.60;;;;;;1611529;73;1139;-57
2021/01/08 04:58:32;;;;;;;;;;;23.00;42.50;;;;;;1622344;72;680;-58
2021/01/08 05:00:35;;;;;;;;;;;23.00;42.50;;;;;;1618971;72;687;-57
2021/01/08 05:02:37;;;;;;;;;;;23.10;42.60;;;;;;1617284;73;723;-58
2021/01/08 05:04:39;;;;;;;;;;;23.10;42.50;;;;;;1614602;73;700;-58
2021/01/08 05:06:42;;;;;;;;;;;23.10;42.50;;;;;;1606405;73;1129;-57
2021/01/08 05:08:43;;;;;;;;;;;23.10;42.60;;;;;;1611888;72;1924;-57
2021/01/08 05:10:45;;;;;;;;;;;23.10;42.40;;;;;;1614421;72;751;-57
2021/01/08 05:12:51;;;;;;;;;;;23.10;42.50;;;;;;1612625;72;821;-57
2021/01/08 05:14:51;;;;;;;;;;;23.10;42.40;;;;;;1615247;72;1703;-57
2021/01/08 05:16:54;;;;;;;;;;;23.10;42.40;;;;;;1609680;73;1183;-57
2021/01/08 05:18:56;;;;;;;;;;;23.10;42.40;;;;;;1615544;73;699;-58
2021/01/08 05:20:58;;;;;;;;;;;23.00;42.30;;;;;;1619983;73;769;-57
2021/01/08 05:23:00;;;;;;;;;;;23.10;42.50;;;;;;1611671;73;793;-59
2021/01/08 05:25:06;;;;;;;;;;;23.10;42.30;;;;;;1615422;73;793;-57
2021/01/08 05:27:08;;;;;;;;;;;23.10;42.40;;;;;;1612979;73;1100;-57
2021/01/08 05:29:10;;;;;;;;;;;23.10;42.30;;;;;;1583061;73;1919;-58
2021/01/08 05:31:12;;;;;;;;;;;23.20;42.50;;;;;;1618973;72;601;-57
2021/01/08 05:33:17;;;;;;;;;;;23.20;42.50;;;;;;1616367;73;726;-56
2021/01/08 05:35:19;;;;;;;;;;;23.20;42.60;;;;;;1613722;72;874;-58
2021/01/08 05:37:21;;;;;;;;;;;23.10;42.40;;;;;;1612615;73;1178;-56
2021/01/08 05:39:23;;;;;;;;;;;23.10;42.40;;;;;;1585301;73;1343;-58
2021/01/08 05:41:28;;;;;;;;;;;23.20;42.30;;;;;;1611081;73;715;-56
2021/01/08 05:43:30;;;;;;;;;;;23.10;42.30;;;;;;1615245;73;789;-58
2021/01/08 05:45:32;;;;;;;;;;;23.20;42.50;;;;;;1613917;73;773;-57
2021/01/08 05:47:34;;;;;;;;;;;23.10;42.20;;;;;;1607006;73;1952;-57
2021/01/08 05:49:36;;;;;;;;;;;23.10;42.30;;;;;;1615624;73;715;-59
2021/01/08 05:51:38;;;;;;;;;;;23.10;42.30;;;;;;1612980;72;778;-58
2021/01/08 05:53:40;;;;;;;;;;;23.10;42.40;;;;;;1603060;72;712;-57
2021/01/08 05:55:44;;;;;;;;;;;23.10;42.30;;;;;;1597137;73;1151;-57
2021/01/08 05:57:45;;;;;;;;;;;23.00;42.20;;;;;;1599679;72;692;-58
2021/01/08 05:59:48;;;;;;;;;;;23.00;42.20;;;;;;1605791;73;754;-58
2021/01/08 06:01:49;;;;;;;;;;;23.10;42.30;;;;;;1602931;73;757;-58
2021/01/08 06:03:51;;;;;;;;;;;23.10;42.30;;;;;;1603269;72;750;-58
2021/01/08 06:05:54;;;;;;;;;;;23.00;42.20;;;;;;1610688;73;1178;-58
2021/01/08 06:07:56;;;;;;;;;;;23.00;42.20;;;;;;1613910;73;1904;-58
2021/01/08 06:09:59;;;;;;;;;;;23.00;42.10;;;;;;1611673;73;779;-57
2021/01/08 06:12:01;;;;;;;;;;;23.00;42.10;;;;;;1597865;72;772;-56
2021/01/08 06:14:03;;;;;;;;;;;23.10;42.30;;;;;;1600593;73;786;-57
2021/01/08 06:16:06;;;;;;;;;;;23.00;42.00;;;;;;1605558;73;1210;-58
2021/01/08 06:18:07;;;;;;;;;;;23.00;42.00;;;;;;1615158;73;656;-58
2021/01/08 06:20:10;;;;;;;;;;;23.10;42.10;;;;;;1585952;75;760;-57
2021/01/08 06:22:12;;;;;;;;;;;23.10;42.10;;;;;;1582438;75;676;-58
2021/01/08 06:24:14;;;;;;;;;;;23.10;42.00;;;;;;1616476;73;778;-57
2021/01/08 06:26:17;;;;;;;;;;;23.10;42.10;;;;;;1606316;73;1141;-56
2021/01/08 06:28:18;;;;;;;;;;;23.10;41.90;;;;;;1611663;73;1923;-57
2021/01/08 06:30:22;;;;;;;;;;;23.10;41.90;;;;;;1616320;72;772;-56
2021/01/08 06:32:24;;;;;;;;;;;23.10;41.90;;;;;;1610998;73;1467;-58
2021/01/08 06:34:26;;;;;;;;;;;23.00;41.70;;;;;;1619117;72;769;-58
2021/01/08 06:36:32;;;;;;;;;;;23.00;41.90;;;;;;1611637;72;1149;-56
2021/01/08 06:38:34;;;;;;;;;;;23.10;42.10;;;;;;1615282;73;715;-56
2021/01/08 06:40:37;;;;;;;;;;;23.10;42.00;;;;;;1616495;73;744;-57
2021/01/08 06:42:43;;;;;;;;;;;23.10;41.90;;;;;;1614099;72;1791;-59
2021/01/08 06:44:45;;;;;;;;;;;23.10;42.00;;;;;;1618520;73;728;-58
2021/01/08 06:46:47;;;;;;;;;;;23.10;42.00;;;;;;1612789;72;1159;-58
2021/01/08 06:48:48;;;;;;;;;;;23.20;42.00;;;;;;1614186;72;1914;-57
2021/01/08 06:50:52;;;;;;;;;;;23.20;41.90;;;;;;1617516;73;716;-57
2021/01/08 06:52:54;;;;;;;;;;;23.20;41.80;;;;;;1614145;73;770;-56
2021/01/08 06:54:56;;;;;;;;;;;23.40;41.80;;;;;;1614103;72;703;-57
2021/01/08 06:57:00;;;;;;;;;;;23.30;41.90;;;;;;1615111;73;1100;-56
2021/01/08 06:59:03;;;;;;;;;;;23.40;41.80;;;;;;1611098;72;825;-57
2021/01/08 07:01:05;;;;;;;;;;;23.40;41.80;;;;;;1612008;72;711;-56
2021/01/08 07:03:07;;;;;;;;;;;23.40;41.80;;;;;;1613900;72;690;-57
2021/01/08 07:05:09;;;;;;;;;;;23.40;41.70;;;;;;1614666;73;745;-58
2021/01/08 07:07:15;;;;;;;;;;;23.40;41.70;;;;;;1618769;73;1100;-58
2021/01/08 07:09:17;;;;;;;;;;;23.40;41.70;;;;;;1613428;73;1927;-56
2021/01/08 07:11:22;;;;;;;;;;;23.40;41.70;;;;;;1619391;72;702;-57
2021/01/08 07:13:30;;;;;;;;;;;23.40;41.70;;;;;;1613048;73;766;-56
2021/01/08 07:15:32;;;;;;;;;;;23.40;41.80;;;;;;1617166;73;778;-58
2021/01/08 07:17:34;;;;;;;;;;;23.30;41.80;;;;;;1613922;72;1237;-56
2021/01/08 07:19:37;;;;;;;;;;;23.30;42.00;;;;;;1612575;72;789;-58
2021/01/08 07:21:40;;;;;;;;;;;23.20;41.90;;;;;;1585571;75;1230;-57
2021/01/08 07:23:42;;;;;;;;;;;23.20;42.10;;;;;;1601753;72;1806;-57
2021/01/08 07:25:44;;;;;;;;;;;23.20;42.10;;;;;;1600576;72;1133;-59
2021/01/08 07:27:46;;;;;;;;;;;23.20;42.00;;;;;;1608452;73;748;-55
2021/01/08 07:30:02;;;;;;;;;;;23.20;42.10;;;;;;1614761;73;1906;-57
2021/01/08 07:32:05;;;;;;;;;;;23.30;42.10;;;;;;1614610;72;2015;-58
2021/01/08 07:34:08;;;;;;;;;;;23.20;42.10;;;;;;1607622;73;772;-56
2021/01/08 07:36:20;;;;;;;;;;;23.30;42.10;;;;;;1618124;72;1167;-56
2021/01/08 07:38:24;;;;;;;;;;;23.20;41.90;;;;;;1620152;72;699;-57
2021/01/08 07:40:26;;;;;;;;;;;23.30;42.00;;;;;;1592366;73;1619;-57
2021/01/08 07:42:33;;;;;;;;;;;23.30;42.00;;;;;;1602481;73;698;-57
2021/01/08 07:44:36;;;;;;;;;;;23.30;42.10;;;;;;1606153;72;908;-56
2021/01/08 07:46:40;;;;;;;;;;;23.20;41.90;;;;;;1598207;73;1159;-57
2021/01/08 07:48:43;;;;;;;;;;;23.20;41.90;;;;;;1607996;73;1918;-57
2021/01/08 07:50:52;;;;;;;;;;;23.20;41.90;;;;;;1605504;73;712;-57
2021/01/08 07:52:54;;;;;;;;;;;23.30;42.10;;;;;;1596987;73;1699;-57
2021/01/08 07:54:56;;;;;;;;;;;23.40;42.10;;;;;;1599948;72;756;-57
2021/01/08 07:57:04;;;;;;;;;;;23.30;42.10;;;;;;1607442;72;1220;-57
2021/01/08 07:59:08;;;;;;;;;;;23.30;42.10;;;;;;1610934;73;713;-58
2021/01/08 08:01:11;;;;;;;;;;;23.20;41.90;;;;;;1612401;72;753;-58
2021/01/08 08:03:13;;;;;;;;;;;23.30;42.00;;;;;;1603146;73;721;-57
2021/01/08 08:05:15;;;;;;;;;;;23.30;42.10;;;;;;1605606;73;1120;-57
2021/01/08 08:07:17;;;;;;;;;;;23.30;42.10;;;;;;1612718;73;1230;-56
2021/01/08 08:09:20;;;;;;;;;;;23.30;42.20;;;;;;1612147;72;1917;-58
2021/01/08 08:11:26;;;;;;;;;;;23.30;42.20;;;;;;1614836;73;784;-58
2021/01/08 08:13:30;;;;;;;;;;;23.30;42.20;;;;;;1601563;73;1688;-59
2021/01/08 08:15:32;;;;;;;;;;;23.30;42.20;;;;;;1610058;73;681;-58
2021/01/08 08:17:33;;;;;;;;;;;23.30;42.10;;;;;;1617929;73;1088;-57
2021/01/08 08:19:35;;;;;;;;;;;23.30;42.10;;;;;;1607795;72;697;-57
2021/01/08 08:21:47;;;;;;;;;;;23.20;41.90;;;;;;1605232;72;730;-57
2021/01/08 08:23:54;;;;;;;;;;;23.30;42.20;;;;;;1598648;72;733;-58
2021/01/08 08:25:55;;;;;;;;;;;23.20;41.80;;;;;;1609436;73;1518;-57
2021/01/08 08:28:00;;;;;;;;;;;23.30;41.70;;;;;;1579725;73;1005;-57
2021/01/08 08:30:03;;;;;;;;;;;23.30;41.70;;;;;;1609693;72;1914;-55
2021/01/08 08:32:06;;;;;;;;;;;23.40;41.60;;;;;;1616951;72;1914;-58
2021/01/08 08:34:08;;;;;;;;;;;23.30;41.70;;;;;;1598433;72;717;-57
2021/01/08 08:36:11;;;;;;;;;;;23.30;41.80;;;;;;1611864;73;1099;-55
2021/01/08 08:38:13;;;;;;;;;;;23.30;41.90;;;;;;1609506;73;1123;-56
2021/01/08 08:40:15;;;;;;;;;;;23.40;41.90;;;;;;1617922;72;664;-58
2021/01/08 08:42:20;;;;;;;;;;;23.30;41.80;;;;;;1612958;73;824;-58
2021/01/08 08:44:22;;;;;;;;;;;23.20;41.90;;;;;;1619725;73;759;-57
2021/01/08 08:46:24;;;;;;;;;;;23.30;41.80;;;;;;1612348;73;1190;-58
2021/01/08 08:48:25;;;;;;;;;;;23.20;41.80;;;;;;1615601;73;747;-58
2021/01/08 08:50:27;;;;;;;;;;;23.20;41.80;;;;;;1613134;72;1941;-57
2021/01/08 08:52:29;;;;;;;;;;;23.20;42.00;;;;;;1614515;72;715;-56
2021/01/08 08:54:33;;;;;;;;;;;23.20;41.90;;;;;;1613065;72;791;-57
2021/01/08 08:56:35;;;;;;;;;;;23.30;42.00;;;;;;1616087;73;1767;-56
2021/01/08 08:58:38;;;;;;;;;;;23.20;41.90;;;;;;1610422;73;683;-56
2021/01/08 09:00:43;;;;;;;;;;;23.20;41.90;;;;;;1614993;73;1867;-56
2021/01/08 09:02:45;;;;;;;;;;;23.30;42.10;;;;;;1607317;72;774;-58
2021/01/08 09:05:00;;;;;;;;;;;23.20;42.00;;;;;;1614166;72;726;-58
2021/01/08 09:07:06;;;;;;;;;;;23.20;42.00;;;;;;1604987;72;1143;-58
2021/01/08 09:09:12;;;;;;;;;;;23.20;42.30;;;;;;1603510;72;1977;-58
2021/01/08 09:11:16;;;;;;;;;;;23.20;42.30;;;;;;1604947;72;787;-59
2021/01/08 09:13:22;;;;;;;;;;;23.30;41.50;;;;;;1604567;73;732;-58
2021/01/08 09:15:26;;;;;;;;;;;23.40;41.00;;;;;;1571312;72;1422;-58
2021/01/08 09:17:29;;;;;;;;;;;23.50;40.70;;;;;;1611177;72;1354;-58
2021/01/08 09:19:45;;;;;;;;;;;23.50;40.20;;;;;;1601784;73;835;-58
2021/01/08 09:21:51;;;;;;;;;;;23.60;40.10;;;;;;1613457;72;709;-58
2021/01/08 09:23:52;;;;;;;;;;;23.50;39.80;;;;;;1605911;73;1375;-58
2021/01/08 09:25:54;;;;;;;;;;;23.60;39.60;;;;;;1602219;72;1243;-59
2021/01/08 09:27:56;;;;;;;;;;;23.50;39.40;;;;;;1618088;73;761;-59
2021/01/08 09:30:09;;;;;;;;;;;23.60;39.30;;;;;;1607970;72;1919;-59
2021/01/08 09:32:11;;;;;;;;;;;23.60;39.10;;;;;;1613571;72;1540;-58
2021/01/08 09:34:12;;;;;;;;;;;23.60;39.00;;;;;;1601728;73;820;-58
2021/01/08 09:36:14;;;;;;;;;;;23.60;39.00;;;;;;1610998;73;1151;-59
2021/01/08 09:38:16;;;;;;;;;;;23.50;39.00;;;;;;1601058;72;213600;-74
2021/01/08 09:40:19;;;;;;;;;;;23.50;39.20;;;;;;1599270;73;712;-72
2021/01/08 09:42:20;;;;;;;;;;;23.50;39.30;;;;;;1602002;73;743;-72
2021/01/08 09:44:24;;;;;;;;;;;23.40;39.40;;;;;;1600888;73;732;-71
2021/01/08 09:46:26;;;;;;;;;;;23.40;39.70;;;;;;1598781;73;1756;-72
2021/01/08 09:48:28;;;;;;;;;;;23.40;40.00;;;;;;1607270;72;1192;-69
2021/01/08 09:50:30;;;;;;;;;;;23.30;40.00;;;;;;1618090;72;1931;-69
2021/01/08 09:52:32;;;;;;;;;;;23.40;39.90;;;;;;1621129;72;773;-69
2021/01/08 09:54:41;;;;;;;;;;;23.40;39.50;;;;;;1623910;72;791;-71
2021/01/08 09:56:44;;;;;;;;;;;23.50;39.30;;;;;;1610206;72;789;-74
2021/01/08 09:58:46;;;;;;;;;;;23.40;39.10;;;;;;1610712;72;1167;-73
2021/01/08 10:00:52;;;;;;;;;;;23.40;39.20;;;;;;1617468;72;715;-73
2021/01/08 10:02:54;;;;;;;;;;;23.40;39.50;;;;;;1618065;72;791;-73
2021/01/08 10:04:56;;;;;;;;;;;23.30;39.70;;;;;;1618232;72;711;-74
2021/01/08 10:06:58;;;;;;;;;;;23.30;40.10;;;;;;1622503;72;711;-72
2021/01/08 10:09:03;;;;;;;;;;;23.30;40.20;;;;;;1614410;72;1935;-73
2021/01/08 10:11:05;;;;;;;;;;;23.30;40.10;;;;;;1622632;72;736;-73
2021/01/08 10:13:09;;;;;;;;;;;23.30;40.20;;;;;;1612373;72;735;-71
2021/01/08 10:15:11;;;;;;;;;;;23.30;40.50;;;;;;1619559;72;930;-72
2021/01/08 10:17:14;;;;;;;;;;;23.20;40.90;;;;;;1616246;72;694;-73
2021/01/08 10:19:16;;;;;;;;;;;23.20;40.80;;;;;;1624455;72;1143;-72
2021/01/08 10:21:19;;;;;;;;;;;23.30;41.10;;;;;;1622611;72;705;-72
2021/01/08 10:23:23;;;;;;;;;;;23.20;41.00;;;;;;1616186;72;1099;-72
2021/01/08 10:25:26;;;;;;;;;;;23.20;41.20;;;;;;1627464;72;899;-73
2021/01/08 10:27:28;;;;;;;;;;;23.30;41.20;;;;;;1617186;72;829;-73
2021/01/08 10:29:32;;;;;;;;;;;23.30;41.30;;;;;;1622394;72;1945;-73
2021/01/08 10:31:34;;;;;;;;;;;23.40;41.20;;;;;;1618931;72;1042;-69
2021/01/08 10:33:36;;;;;;;;;;;23.40;41.10;;;;;;1611215;72;778;-70
2021/01/08 10:35:37;;;;;;;;;;;23.50;41.10;;;;;;1621552;72;701;-69
2021/01/08 10:37:39;;;;;;;;;;;23.50;41.10;;;;;;1615699;72;768;-71
2021/01/08 10:39:41;;;;;;;;;;;23.50;41.10;;;;;;1615750;72;797;-68
2021/01/08 10:41:43;;;;;;;;;;;23.60;41.00;;;;;;1612637;72;712;-70
2021/01/08 10:43:45;;;;;;;;;;;23.50;40.90;;;;;;1623267;72;691;-70
2021/01/08 10:45:47;;;;;;;;;;;23.60;40.90;;;;;;1621611;72;776;-70
2021/01/08 10:47:49;;;;;;;;;;;23.50;40.90;;;;;;1610750;72;1108;-71
2021/01/08 10:49:51;;;;;;;;;;;23.60;41.00;;;;;;1625756;72;1936;-70
2021/01/08 10:51:53;;;;;;;;;;;23.50;41.00;;;;;;1631193;72;737;-70
2021/01/08 10:53:55;;;;;;;;;;;23.50;41.10;;;;;;1626201;72;787;-69
2021/01/08 10:55:57;;;;;;;;;;;23.40;41.10;;;;;;1619616;72;725;-69
2021/01/08 10:57:59;;;;;;;;;;;23.50;41.00;;;;;;1610071;72;1182;-65
2021/01/08 11:00:01;;;;;;;;;;;23.50;40.60;;;;;;1623524;72;771;-67
2021/01/08 11:02:04;;;;;;;;;;;23.60;40.10;;;;;;1627185;72;759;-67
2021/01/08 11:04:06;;;;;;;;;;;23.60;39.70;;;;;;1612277;72;791;-67
2021/01/08 11:06:07;;;;;;;;;;;23.70;39.50;;;;;;1618974;72;659;-67
2021/01/08 11:08:29;;;;;;;;;;;23.70;39.30;;;;;;1621224;72;1127;-67
2021/01/08 11:10:31;;;;;;;;;;;23.70;39.20;;;;;;1647277;71;1942;-58
2021/01/08 11:12:33;;;;;;;;;;;23.70;39.00;;;;;;1648700;70;739;-58
2021/01/08 11:14:35;;;;;;;;;;;23.60;38.70;;;;;;1638636;72;756;-57
2021/01/08 11:16:37;;;;;;;;;;;23.70;38.70;;;;;;1630912;72;1284;-59
2021/01/08 11:18:39;;;;;;;;;;;23.60;38.60;;;;;;1626471;72;658;-59
2021/01/08 11:20:41;;;;;;;;;;;23.60;38.40;;;;;;1624234;73;685;-58
2021/01/08 11:22:43;;;;;;;;;;;23.60;38.40;;;;;;1620512;73;688;-57
2021/01/08 11:24:45;;;;;;;;;;;23.60;38.40;;;;;;1614690;73;716;-57
2021/01/08 11:26:46;;;;;;;;;;;23.50;38.20;;;;;;1623981;73;1135;-58
2021/01/08 11:28:48;;;;;;;;;;;23.60;38.30;;;;;;1621684;73;944;-57
2021/01/08 11:30:50;;;;;;;;;;;23.60;38.20;;;;;;1605928;73;1931;-57
2021/01/08 11:32:52;;;;;;;;;;;23.50;38.10;;;;;;1606895;72;735;-58
2021/01/08 11:34:54;;;;;;;;;;;23.50;38.10;;;;;;1575205;74;1054;-57
2021/01/08 11:37:00;;;;;;;;;;;23.50;38.10;;;;;;1582086;74;1148;-57
2021/01/08 11:38:59;;;;;;;;;;;23.50;38.10;;;;;;1560046;74;1150;-57
2021/01/08 11:41:01;;;;;;;;;;;23.50;38.10;;;;;;1606038;73;799;-58
2021/01/08 11:43:03;;;;;;;;;;;23.50;38.10;;;;;;1609613;73;699;-58
2021/01/08 11:45:06;;;;;;;;;;;23.50;38.00;;;;;;1607572;73;728;-57
2021/01/08 11:47:08;;;;;;;;;;;23.50;38.10;;;;;;1612532;73;1132;-58
2021/01/08 11:49:09;;;;;;;;;;;23.50;38.00;;;;;;1595539;73;722;-59
2021/01/08 11:51:12;;;;;;;;;;;23.50;38.00;;;;;;1607388;73;1935;-57
2021/01/08 11:53:14;;;;;;;;;;;23.50;37.90;;;;;;1616740;73;715;-58
2021/01/08 11:55:16;;;;;;;;;;;23.50;37.90;;;;;;1597887;73;721;-59
2021/01/08 11:57:18;;;;;;;;;;;23.50;37.90;;;;;;1599824;73;1168;-58
2021/01/08 11:59:19;;;;;;;;;;;23.40;37.70;;;;;;1610547;73;707;-59
2021/01/08 12:01:24;;;;;;;;;;;23.40;37.60;;;;;;1594215;73;796;-58
2021/01/08 12:03:26;;;;;;;;;;;23.50;37.70;;;;;;1589569;73;815;-59
2021/01/08 12:05:28;;;;;;;;;;;23.40;37.60;;;;;;1595086;73;753;-59
2021/01/08 12:07:32;;;;;;;;;;;23.40;37.60;;;;;;1593577;73;1112;-59
2021/01/08 12:09:33;;;;;;;;;;;23.40;37.60;;;;;;1598385;73;764;-57
2021/01/08 12:11:35;;;;;;;;;;;23.40;37.50;;;;;;1596360;73;1922;-58